Time;durP1;ratioP1;P1;durP2;ratioP2;P2;SDS_P1;SDS_P2;PMS_P1;PMS_P2;Temp;Humidity;BMP_temperature;BMP_pressure;BME280_temperature;BME280_humidity;BME280_pressure;Samples;Min_cycle;Max_cycle;Signal;HPM_P1;HPM_P2
2022/05/30 00:00:44;;;;;;;1.63;0.73;;;21.90;44.50;;;;;;5053287;28;20040;-61
2022/05/30 00:03:10;;;;;;;2.53;0.90;;;21.90;44.50;;;;;;5055569;28;20397;-60
2022/05/30 00:05:36;;;;;;;2.45;0.82;;;21.90;44.50;;;;;;5053725;28;20048;-62
2022/05/30 00:08:02;;;;;;;2.53;0.93;;;21.90;44.60;;;;;;5053255;28;20060;-60
2022/05/30 00:10:29;;;;;;;1.15;0.65;;;21.80;44.50;;;;;;5053903;28;20433;-60
2022/05/30 00:12:55;;;;;;;1.73;0.80;;;21.80;44.50;;;;;;5053900;28;20075;-60
2022/05/30 00:15:22;;;;;;;1.27;0.65;;;21.80;44.50;;;;;;5052222;28;20075;-61
2022/05/30 00:17:52;;;;;;;1.42;0.68;;;21.80;44.50;;;;;;5052494;28;20040;-60
2022/05/30 00:20:17;;;;;;;2.38;0.90;;;21.80;44.50;;;;;;5054211;28;20041;-61
2022/05/30 00:22:43;;;;;;;2.45;1.05;;;21.80;44.40;;;;;;5052646;28;20104;-61
2022/05/30 00:25:09;;;;;;;1.88;0.70;;;21.80;44.40;;;;;;5054821;28;20041;-62
2022/05/30 00:27:34;;;;;;;2.80;0.80;;;21.80;44.40;;;;;;5036033;28;20056;-60
2022/05/30 00:30:00;;;;;;;1.25;0.70;;;21.70;44.40;;;;;;5055032;28;20095;-61
2022/05/30 00:32:26;;;;;;;1.63;0.68;;;21.70;44.40;;;;;;5054577;28;20052;-61
2022/05/30 00:34:52;;;;;;;1.95;0.90;;;21.70;44.30;;;;;;5051650;28;20435;-61
2022/05/30 00:37:18;;;;;;;2.17;0.85;;;21.70;44.40;;;;;;5052912;28;20047;-61
2022/05/30 00:39:43;;;;;;;1.52;0.80;;;21.70;44.30;;;;;;5052102;28;20029;-61
2022/05/30 00:42:13;;;;;;;1.95;0.93;;;21.70;44.30;;;;;;5051559;28;20040;-61
2022/05/30 00:44:40;;;;;;;1.95;0.80;;;21.70;44.30;;;;;;5049425;28;20033;-61
2022/05/30 00:47:06;;;;;;;1.67;0.65;;;21.70;44.30;;;;;;5052092;28;20045;-62
2022/05/30 00:49:31;;;;;;;1.27;0.70;;;21.70;44.30;;;;;;5053918;28;20036;-61
2022/05/30 00:52:02;;;;;;;1.25;0.70;;;21.70;44.30;;;;;;5054732;28;20097;-61
2022/05/30 00:54:37;;;;;;;2.60;0.80;;;21.70;44.30;;;;;;5054134;28;20507;-61
2022/05/30 00:57:20;;;;;;;0.85;0.60;;;21.70;44.30;;;;;;5054091;28;20072;-61
2022/05/30 00:59:54;;;;;;;1.73;0.77;;;21.60;44.20;;;;;;5054325;28;20036;-61
2022/05/30 01:02:21;;;;;;;2.35;0.88;;;21.60;44.30;;;;;;5053284;28;20526;-61
2022/05/30 01:07:32;;;;;;;1.92;0.70;;;21.60;44.30;;;;;;5054296;28;20424;-60
2022/05/30 01:10:00;;;;;;;1.67;0.80;;;21.60;44.30;;;;;;5051647;28;20439;-61
2022/05/30 01:12:52;;;;;;;2.10;0.50;;;21.60;44.30;;;;;;5052038;28;20098;-62
2022/05/30 01:15:21;;;;;;;1.92;0.80;;;21.60;44.30;;;;;;5052035;28;20068;-61
2022/05/30 01:18:21;;;;;;;1.75;0.80;;;21.60;44.30;;;;;;5053909;28;20032;-61
2022/05/30 01:20:56;;;;;;;1.95;0.70;;;21.60;44.30;;;;;;5052147;28;20056;-61
2022/05/30 01:23:48;;;;;;;1.30;0.68;;;21.50;44.20;;;;;;5052727;28;20131;-60
2022/05/30 01:26:43;;;;;;;1.90;0.85;;;21.50;44.20;;;;;;5053534;28;20076;-61
2022/05/30 01:29:34;;;;;;;1.92;0.90;;;21.50;44.30;;;;;;5053649;28;20127;-60
2022/05/30 01:32:00;;;;;;;1.73;0.80;;;21.50;44.30;;;;;;5052444;28;20052;-61
2022/05/30 01:34:28;;;;;;;1.65;0.77;;;21.50;44.40;;;;;;5050114;28;20095;-61
2022/05/30 01:36:54;;;;;;;1.42;0.63;;;21.50;44.30;;;;;;5055062;28;20033;-60
2022/05/30 01:39:19;;;;;;;1.83;0.90;;;21.50;44.30;;;;;;5055324;28;20067;-60
2022/05/30 01:41:45;;;;;;;2.40;0.75;;;21.40;44.20;;;;;;5054659;28;20051;-61
2022/05/30 01:44:11;;;;;;;1.90;0.80;;;21.40;44.30;;;;;;5053587;28;20182;-61
2022/05/30 01:46:37;;;;;;;1.45;0.57;;;21.40;44.90;;;;;;5036399;28;20056;-61
2022/05/30 01:49:03;;;;;;;2.25;0.80;;;21.40;44.30;;;;;;5054716;28;20068;-61
2022/05/30 01:51:29;;;;;;;1.80;0.70;;;21.40;44.20;;;;;;5060266;28;20044;-60
2022/05/30 01:53:54;;;;;;;2.03;0.98;;;21.40;44.20;;;;;;5053205;28;20040;-61
2022/05/30 01:56:21;;;;;;;2.55;0.82;;;21.40;44.20;;;;;;5058029;28;20472;-62
2022/05/30 01:58:47;;;;;;;2.45;0.70;;;21.40;44.20;;;;;;5058566;28;20041;-60
2022/05/30 02:01:22;;;;;;;3.05;0.90;;;21.40;44.20;;;;;;5053516;28;20433;-61
2022/05/30 02:03:49;;;;;;;1.23;0.63;;;21.40;44.20;;;;;;5033404;28;20139;-62
2022/05/30 02:06:15;;;;;;;2.80;1.10;;;21.40;44.20;;;;;;5052268;28;20123;-60
2022/05/30 02:08:41;;;;;;;2.13;0.73;;;21.40;44.20;;;;;;5054400;28;20049;-61
2022/05/30 02:11:08;;;;;;;2.15;0.90;;;21.40;44.10;;;;;;5056041;28;20518;-60
2022/05/30 02:13:34;;;;;;;1.35;0.82;;;21.30;44.10;;;;;;5054859;28;20033;-61
2022/05/30 02:18:49;;;;;;;1.90;0.63;;;21.30;44.10;;;;;;5053146;28;20122;-60
2022/05/30 02:21:15;;;;;;;1.83;0.60;;;21.30;44.20;;;;;;5055525;28;20029;-61
2022/05/30 02:23:41;;;;;;;0.90;0.63;;;21.30;44.20;;;;;;5052630;28;20063;-59
2022/05/30 02:26:07;;;;;;;1.35;0.60;;;21.30;44.10;;;;;;5055755;28;20036;-61
2022/05/30 02:28:32;;;;;;;1.38;0.75;;;21.30;44.10;;;;;;5038562;28;20805;-60
2022/05/30 02:30:58;;;;;;;1.98;0.63;;;21.30;44.10;;;;;;5055930;28;20040;-61
2022/05/30 02:38:52;;;;;;;1.38;0.80;;;21.20;44.10;;;;;;5055987;28;20049;-60
2022/05/30 02:41:21;;;;;;;1.50;0.73;;;21.20;44.10;;;;;;5033768;28;20735;-61
2022/05/30 02:43:46;;;;;;;1.42;0.77;;;21.20;44.10;;;;;;5052214;28;20109;-61
2022/05/30 02:46:13;;;;;;;2.58;0.82;;;21.20;44.10;;;;;;5055413;28;21502;-61
2022/05/30 02:48:38;;;;;;;0.80;0.55;;;21.20;44.00;;;;;;5055864;28;20453;-61
2022/05/30 02:51:04;;;;;;;1.92;0.63;;;21.20;44.00;;;;;;5056223;28;20127;-60
2022/05/30 02:53:30;;;;;;;1.52;0.80;;;21.20;44.10;;;;;;5055780;28;20032;-61
2022/05/30 02:55:56;;;;;;;1.17;0.80;;;21.20;44.00;;;;;;5056070;28;20044;-61
2022/05/30 02:58:22;;;;;;;1.77;0.77;;;21.20;44.10;;;;;;5055289;28;20053;-61
2022/05/30 03:00:47;;;;;;;1.33;0.70;;;21.10;44.10;;;;;;5053569;28;20029;-61
2022/05/30 03:03:13;;;;;;;1.98;0.90;;;21.10;44.10;;;;;;5054539;28;20487;-61
2022/05/30 03:05:38;;;;;;;1.55;0.95;;;21.10;44.20;;;;;;5054592;28;20048;-60
2022/05/30 03:08:08;;;;;;;1.48;0.70;;;21.10;44.10;;;;;;5052526;28;20033;-61
2022/05/30 03:10:33;;;;;;;0.82;0.60;;;21.10;44.10;;;;;;5054000;28;20417;-62
2022/05/30 03:12:59;;;;;;;0.93;0.60;;;21.10;44.10;;;;;;5056165;28;20051;-60
2022/05/30 03:15:25;;;;;;;2.45;0.80;;;21.10;44.20;;;;;;5040436;28;20073;-61
2022/05/30 03:17:51;;;;;;;1.15;0.60;;;21.10;44.10;;;;;;5051417;28;20037;-61
2022/05/30 03:20:20;;;;;;;1.58;0.70;;;21.10;44.10;;;;;;5053640;28;20444;-60
2022/05/30 03:22:47;;;;;;;3.05;0.85;;;21.10;44.10;;;;;;5055517;28;20126;-61
2022/05/30 03:25:14;;;;;;;2.10;0.98;;;21.10;44.10;;;;;;5053748;28;20045;-61
2022/05/30 03:27:40;;;;;;;1.33;0.70;;;21.10;44.10;;;;;;5036863;28;20052;-62
2022/05/30 03:30:07;;;;;;;2.90;0.85;;;21.10;44.20;;;;;;5053956;28;20416;-61
2022/05/30 03:32:33;;;;;;;1.60;0.73;;;21.10;44.10;;;;;;5053932;28;20155;-60
2022/05/30 03:34:59;;;;;;;1.88;0.80;;;21.10;44.20;;;;;;5054000;28;20079;-61
2022/05/30 03:37:25;;;;;;;2.28;0.90;;;21.00;44.10;;;;;;5055284;28;20055;-61
2022/05/30 03:39:51;;;;;;;2.67;0.80;;;21.00;44.10;;;;;;5053268;28;20045;-60
2022/05/30 03:42:16;;;;;;;3.08;1.00;;;21.00;44.10;;;;;;5053116;28;20043;-60
2022/05/30 03:44:42;;;;;;;0.70;0.60;;;21.00;44.10;;;;;;5056625;28;20041;-60
2022/05/30 03:47:08;;;;;;;2.17;0.90;;;21.00;44.10;;;;;;5054254;28;20898;-61
2022/05/30 03:49:34;;;;;;;1.27;0.80;;;21.00;44.10;;;;;;5055950;28;20392;-61
2022/05/30 03:52:00;;;;;;;2.58;0.70;;;21.00;44.10;;;;;;5053154;28;20028;-61
2022/05/30 03:54:26;;;;;;;1.02;0.63;;;21.00;44.10;;;;;;5054984;28;20403;-60
2022/05/30 03:56:52;;;;;;;2.00;0.77;;;21.00;44.10;;;;;;5053427;28;20064;-60
2022/05/30 03:59:18;;;;;;;1.70;0.70;;;21.00;44.10;;;;;;5053809;28;20036;-60
2022/05/30 04:01:44;;;;;;;2.25;0.60;;;21.00;44.10;;;;;;5050522;28;20438;-61
2022/05/30 04:04:10;;;;;;;1.63;0.55;;;21.00;44.10;;;;;;5049835;28;20032;-61
2022/05/30 04:06:36;;;;;;;1.38;0.70;;;21.00;44.10;;;;;;5049544;28;20074;-60
2022/05/30 04:09:02;;;;;;;2.15;0.90;;;21.00;44.00;;;;;;5051811;28;20049;-60
2022/05/30 04:11:28;;;;;;;2.05;0.80;;;20.90;44.00;;;;;;5052077;28;20047;-61
2022/05/30 04:13:54;;;;;;;1.42;0.95;;;21.00;44.00;;;;;;5053849;28;20098;-61
2022/05/30 04:16:19;;;;;;;1.30;0.70;;;20.90;44.00;;;;;;5051609;28;20036;-60
2022/05/30 04:18:45;;;;;;;2.03;0.80;;;20.90;44.00;;;;;;5052571;28;20041;-61
2022/05/30 04:21:11;;;;;;;1.05;0.80;;;20.90;44.00;;;;;;5053847;28;20130;-60
2022/05/30 04:23:40;;;;;;;1.08;0.60;;;20.90;44.00;;;;;;5053208;28;20115;-60
2022/05/30 04:26:07;;;;;;;1.10;0.60;;;20.90;44.00;;;;;;5051091;28;20413;-60
2022/05/30 04:28:33;;;;;;;2.20;0.70;;;20.90;44.00;;;;;;5057304;28;20040;-62
2022/05/30 04:30:58;;;;;;;1.55;0.70;;;20.90;44.00;;;;;;5054296;28;21086;-62
2022/05/30 04:33:24;;;;;;;1.48;0.70;;;20.90;44.00;;;;;;5054897;28;20692;-61
2022/05/30 04:35:49;;;;;;;1.38;0.65;;;20.90;44.10;;;;;;5055031;28;20056;-61
2022/05/30 04:38:15;;;;;;;1.75;0.82;;;20.90;44.10;;;;;;5055122;28;20076;-60
2022/05/30 04:40:40;;;;;;;1.23;0.70;;;20.90;44.00;;;;;;5053437;28;20650;-61
2022/05/30 04:43:06;;;;;;;1.55;0.70;;;20.90;44.10;;;;;;5055533;28;20505;-61
2022/05/30 04:45:31;;;;;;;1.35;0.65;;;20.90;44.10;;;;;;5052377;28;20040;-60
2022/05/30 04:47:57;;;;;;;1.63;0.60;;;20.90;44.10;;;;;;5053874;28;20172;-61
2022/05/30 04:50:24;;;;;;;1.85;0.85;;;20.80;44.00;;;;;;5035420;28;20099;-61
2022/05/30 04:52:50;;;;;;;1.67;0.50;;;20.90;44.10;;;;;;5053345;28;20123;-61
2022/05/30 04:55:18;;;;;;;2.20;0.70;;;20.80;44.00;;;;;;5056478;28;20076;-61
2022/05/30 04:57:46;;;;;;;1.60;0.50;;;20.80;44.00;;;;;;5052693;28;20129;-60
2022/05/30 05:00:14;;;;;;;1.10;0.52;;;20.90;44.10;;;;;;5054406;28;20037;-60
2022/05/30 05:02:40;;;;;;;2.00;0.68;;;20.80;44.10;;;;;;5054272;28;20036;-61
2022/05/30 05:05:06;;;;;;;2.13;0.70;;;20.80;44.10;;;;;;5052619;28;20047;-60
2022/05/30 05:08:05;;;;;;;1.38;0.60;;;20.80;44.10;;;;;;5051549;28;20036;-60
2022/05/30 05:10:58;;;;;;;4.68;0.90;;;20.80;44.10;;;;;;4988050;28;20126;-61
2022/05/30 05:13:24;;;;;;;1.52;0.55;;;20.80;44.10;;;;;;5056090;28;20057;-61
2022/05/30 05:15:49;;;;;;;1.92;0.65;;;20.80;44.20;;;;;;5055464;28;20045;-61
2022/05/30 05:18:15;;;;;;;1.52;0.70;;;20.80;44.20;;;;;;5042231;28;20454;-60
2022/05/30 05:20:44;;;;;;;2.22;0.70;;;20.80;44.20;;;;;;5058368;28;20204;-60
2022/05/30 05:23:11;;;;;;;2.15;0.70;;;20.80;44.20;;;;;;5054755;28;20040;-62
2022/05/30 05:25:38;;;;;;;1.88;0.68;;;20.80;44.30;;;;;;5061472;28;20559;-61
2022/05/30 05:28:03;;;;;;;1.67;0.75;;;20.80;44.20;;;;;;5053904;28;20071;-61
2022/05/30 05:30:29;;;;;;;1.40;0.60;;;20.80;44.30;;;;;;5056916;28;20473;-61
2022/05/30 05:32:54;;;;;;;1.83;0.68;;;20.80;44.40;;;;;;5052506;28;20536;-61
2022/05/30 05:35:20;;;;;;;1.42;0.60;;;20.80;44.50;;;;;;5054826;28;20044;-60
2022/05/30 05:37:45;;;;;;;1.75;0.57;;;20.80;44.60;;;;;;5058838;28;20111;-60
2022/05/30 05:40:11;;;;;;;3.25;0.60;;;20.80;44.70;;;;;;5055014;28;20395;-60
2022/05/30 05:42:37;;;;;;;2.28;0.60;;;20.90;44.80;;;;;;5057500;28;20025;-60
2022/05/30 05:45:03;;;;;;;3.47;0.77;;;20.80;44.80;;;;;;5059497;28;20376;-61
2022/05/30 05:47:29;;;;;;;4.10;0.70;;;20.90;45.00;;;;;;5058684;28;20108;-61
2022/05/30 05:49:54;;;;;;;2.58;0.63;;;20.90;45.00;;;;;;5058466;28;20698;-60
2022/05/30 05:52:20;;;;;;;1.50;0.60;;;20.90;45.10;;;;;;5055934;28;20393;-60
2022/05/30 05:54:46;;;;;;;1.60;0.63;;;20.90;45.30;;;;;;5057084;28;20516;-60
2022/05/30 05:57:12;;;;;;;2.03;0.60;;;20.90;45.30;;;;;;5055002;28;20033;-60
2022/05/30 05:59:37;;;;;;;5.47;0.77;;;20.90;45.20;;;;;;5057250;28;20451;-60
2022/05/30 06:02:07;;;;;;;2.25;0.80;;;20.90;45.20;;;;;;5055143;28;20037;-61
2022/05/30 06:04:32;;;;;;;2.83;0.93;;;20.90;45.40;;;;;;5057400;28;20032;-60
2022/05/30 06:07:01;;;;;;;2.05;0.50;;;20.90;46.10;;;;;;5057385;28;20051;-61
2022/05/30 06:09:27;;;;;;;1.17;0.50;;;20.90;45.40;;;;;;5056882;28;20460;-60
2022/05/30 06:11:56;;;;;;;1.77;0.77;;;20.90;45.40;;;;;;5054496;28;20124;-61
2022/05/30 06:14:22;;;;;;;2.20;0.80;;;20.90;45.50;;;;;;5051987;28;20047;-61
2022/05/30 06:16:47;;;;;;;1.40;0.55;;;20.90;45.50;;;;;;5053702;28;20040;-60
2022/05/30 06:19:13;;;;;;;3.38;0.57;;;20.90;45.60;;;;;;5055214;28;20052;-62
2022/05/30 06:21:39;;;;;;;1.70;0.70;;;21.00;45.70;;;;;;5056772;28;20064;-61
2022/05/30 06:24:05;;;;;;;2.25;0.68;;;21.00;46.40;;;;;;5035725;28;20086;-60
2022/05/30 06:26:30;;;;;;;3.45;0.73;;;21.00;45.70;;;;;;5036828;28;20037;-59
2022/05/30 06:28:56;;;;;;;1.05;0.60;;;21.00;45.70;;;;;;5053747;28;20604;-58
2022/05/30 06:31:24;;;;;;;2.75;0.70;;;20.90;45.50;;;;;;5052967;28;20032;-58
2022/05/30 06:33:50;;;;;;;1.55;0.55;;;20.90;45.60;;;;;;5040427;28;20847;-61
2022/05/30 06:36:18;;;;;;;1.00;0.77;;;20.90;45.70;;;;;;5029225;28;20052;-60
2022/05/30 06:38:44;;;;;;;2.00;0.50;;;20.90;45.70;;;;;;5052334;28;20052;-60
2022/05/30 06:41:15;;;;;;;2.42;0.80;;;20.90;45.70;;;;;;5051641;28;20037;-61
2022/05/30 06:43:41;;;;;;;1.88;0.63;;;20.90;45.70;;;;;;5035154;28;20052;-61
2022/05/30 06:46:07;;;;;;;1.67;0.50;;;20.90;45.70;;;;;;5054770;28;20424;-60
2022/05/30 06:48:33;;;;;;;1.20;0.63;;;20.90;45.60;;;;;;5038434;28;20074;-60
2022/05/30 06:51:02;;;;;;;1.30;0.40;;;20.90;45.60;;;;;;5059111;28;20044;-59
2022/05/30 06:53:28;;;;;;;1.88;0.70;;;20.90;45.50;;;;;;5056052;28;20029;-58
2022/05/30 06:55:53;;;;;;;1.92;0.85;;;20.90;45.60;;;;;;5052711;28;20106;-61
2022/05/30 06:58:19;;;;;;;3.50;0.60;;;20.90;45.60;;;;;;5055878;28;20039;-63
2022/05/30 07:00:47;;;;;;;2.70;0.65;;;20.90;45.60;;;;;;5057205;28;20836;-62
2022/05/30 07:03:17;;;;;;;2.85;0.70;;;20.90;45.60;;;;;;5054605;28;20049;-61
2022/05/30 07:05:44;;;;;;;1.07;0.53;;;20.90;45.80;;;;;;5052587;28;20036;-62
2022/05/30 07:08:12;;;;;;;1.48;0.57;;;20.90;45.80;;;;;;5053467;28;20041;-61
2022/05/30 07:10:39;;;;;;;2.08;0.60;;;20.90;45.80;;;;;;5054815;28;20389;-63
2022/05/30 07:13:05;;;;;;;2.58;0.70;;;20.90;45.80;;;;;;5051612;28;20044;-63
2022/05/30 07:15:35;;;;;;;1.92;0.65;;;20.90;45.90;;;;;;5056844;28;20039;-61
2022/05/30 07:18:10;;;;;;;1.55;0.70;;;20.90;45.80;;;;;;5053071;28;20118;-62
2022/05/30 07:20:36;;;;;;;1.25;0.52;;;20.90;45.80;;;;;;5054135;28;20799;-61
2022/05/30 07:23:01;;;;;;;1.63;0.50;;;20.90;45.80;;;;;;5057158;28;20036;-61
2022/05/30 07:25:27;;;;;;;1.90;0.63;;;20.90;45.90;;;;;;5054861;28;20033;-59
2022/05/30 07:27:52;;;;;;;0.88;0.50;;;20.90;45.90;;;;;;5053277;28;21476;-59
2022/05/30 07:30:18;;;;;;;1.77;0.60;;;20.90;45.90;;;;;;5053089;28;20036;-60
2022/05/30 07:32:44;;;;;;;1.15;0.50;;;20.90;45.80;;;;;;5053346;28;20416;-61
2022/05/30 07:35:09;;;;;;;3.47;1.17;;;20.90;45.70;;;;;;5053278;28;20056;-61
2022/05/30 07:37:35;;;;;;;3.90;1.13;;;20.90;45.90;;;;;;5057952;28;20143;-60
2022/05/30 07:40:01;;;;;;;4.57;1.52;;;20.90;45.80;;;;;;5053161;28;20072;-61
2022/05/30 07:42:26;;;;;;;4.95;1.02;;;20.90;45.90;;;;;;5051702;28;20479;-63
2022/05/30 07:44:52;;;;;;;4.97;1.35;;;20.90;45.80;;;;;;5052734;28;20033;-63
2022/05/30 07:47:18;;;;;;;4.85;1.35;;;20.90;45.80;;;;;;5054181;28;20702;-61
2022/05/30 07:49:44;;;;;;;5.63;1.23;;;20.90;45.80;;;;;;5053977;28;20386;-62
2022/05/30 07:52:10;;;;;;;4.40;1.20;;;20.90;45.80;;;;;;5054356;28;20044;-63
2022/05/30 07:54:36;;;;;;;5.68;1.45;;;20.90;45.70;;;;;;5053182;28;20036;-62
2022/05/30 07:57:06;;;;;;;3.25;0.88;;;20.90;46.00;;;;;;5051008;28;20728;-62
2022/05/30 07:59:32;;;;;;;6.10;1.40;;;20.90;46.20;;;;;;5052612;28;20442;-62
2022/05/30 08:01:58;;;;;;;3.35;0.85;;;20.90;46.30;;;;;;5055124;28;20033;-61
2022/05/30 08:04:24;;;;;;;3.72;1.13;;;20.80;46.30;;;;;;5053444;28;20102;-62
2022/05/30 08:06:51;;;;;;;3.55;0.95;;;20.80;46.50;;;;;;5056186;28;20040;-63
2022/05/30 08:09:17;;;;;;;3.10;0.90;;;20.80;46.60;;;;;;5051731;28;20110;-61
2022/05/30 08:11:43;;;;;;;1.80;0.88;;;20.80;46.80;;;;;;5054044;28;20041;-61
2022/05/30 08:14:08;;;;;;;2.63;0.73;;;20.80;47.00;;;;;;5052746;28;20086;-62
2022/05/30 08:16:37;;;;;;;3.67;0.80;;;20.80;47.20;;;;;;5055447;28;21161;-62
2022/05/30 08:19:04;;;;;;;2.53;0.88;;;20.90;47.20;;;;;;5036194;28;20045;-62
2022/05/30 08:21:30;;;;;;;2.83;0.80;;;20.90;47.20;;;;;;5052213;28;20657;-62
2022/05/30 08:23:55;;;;;;;4.03;0.77;;;20.90;47.10;;;;;;5053575;28;20036;-64
2022/05/30 08:26:21;;;;;;;4.32;0.90;;;20.90;47.10;;;;;;5055914;28;20037;-64
2022/05/30 08:28:47;;;;;;;4.10;1.35;;;20.90;47.20;;;;;;5058043;28;20127;-64
2022/05/30 08:31:12;;;;;;;3.90;0.95;;;20.90;47.30;;;;;;5056316;28;20084;-64
2022/05/30 08:33:38;;;;;;;6.47;1.08;;;20.90;47.40;;;;;;5054455;28;20493;-64
2022/05/30 08:36:06;;;;;;;4.35;1.00;;;20.90;47.30;;;;;;5053417;28;20121;-64
2022/05/30 08:38:37;;;;;;;2.35;0.80;;;20.90;47.30;;;;;;5054138;28;20049;-63
2022/05/30 08:43:50;;;;;;;2.88;1.00;;;20.90;47.20;;;;;;5053573;28;20380;-64
2022/05/30 08:46:24;;;;;;;2.70;0.60;;;20.90;47.20;;;;;;5039193;28;20048;-65
2022/05/30 08:49:14;;;;;;;2.55;0.60;;;20.90;47.20;;;;;;5055989;28;20052;-64
2022/05/30 08:52:09;;;;;;;1.80;0.68;;;20.90;47.00;;;;;;5060830;28;20040;-63
2022/05/30 08:54:47;;;;;;;3.13;1.10;;;20.90;47.00;;;;;;5038076;28;20057;-64
2022/05/30 08:57:26;;;;;;;2.28;0.55;;;20.90;47.00;;;;;;5055806;28;20043;-63
2022/05/30 09:00:04;;;;;;;2.25;0.50;;;20.90;46.90;;;;;;5058977;28;20049;-63
2022/05/30 09:03:07;;;;;;;1.67;0.55;;;20.90;46.90;;;;;;5058756;28;20493;-63
2022/05/30 09:05:49;;;;;;;2.35;0.43;;;20.90;46.10;;;;;;5024492;28;20055;-64
2022/05/30 09:08:25;;;;;;;1.05;0.50;;;20.80;46.00;;;;;;5054996;28;20071;-64
2022/05/30 09:11:00;;;;;;;1.70;0.40;;;20.80;45.80;;;;;;5058340;28;20037;-64
2022/05/30 09:13:34;;;;;;;1.20;0.57;;;20.80;45.80;;;;;;5056467;28;20033;-64
2022/05/30 09:16:24;;;;;;;0.63;0.35;;;20.80;45.90;;;;;;5058249;28;20052;-64
2022/05/30 09:18:52;;;;;;;2.05;0.50;;;20.80;45.90;;;;;;5039078;28;20164;-64
2022/05/30 09:21:19;;;;;;;1.42;0.63;;;20.80;45.80;;;;;;5057627;28;20070;-64
2022/05/30 09:23:45;;;;;;;1.42;0.50;;;20.80;45.70;;;;;;5060004;28;20105;-64
2022/05/30 09:26:16;;;;;;;1.27;0.30;;;20.80;45.40;;;;;;5057718;28;20045;-63
2022/05/30 09:28:43;;;;;;;1.85;0.40;;;20.80;45.30;;;;;;5057144;28;20063;-64
2022/05/30 09:31:15;;;;;;;1.38;0.47;;;20.80;45.40;;;;;;5058122;28;20391;-63
2022/05/30 09:33:44;;;;;;;1.67;0.38;;;20.80;45.40;;;;;;5057738;28;20068;-63
2022/05/30 09:36:11;;;;;;;1.42;0.40;;;20.80;45.40;;;;;;5056326;28;20048;-63
2022/05/30 09:39:04;;;;;;;0.43;0.30;;;20.80;45.10;;;;;;5056690;28;20932;-64
2022/05/30 09:41:48;;;;;;;2.30;0.60;;;20.80;45.00;;;;;;5055228;28;20074;-64
2022/05/30 09:44:24;;;;;;;0.90;0.40;;;20.80;44.80;;;;;;5056650;28;20500;-64
2022/05/30 09:47:02;;;;;;;0.70;0.32;;;20.80;44.70;;;;;;5058030;28;20049;-63
2022/05/30 09:49:41;;;;;;;0.55;0.45;;;20.80;44.60;;;;;;5059619;28;20137;-63
2022/05/30 09:52:25;;;;;;;1.75;0.47;;;20.80;44.70;;;;;;5058987;28;20424;-63
2022/05/30 09:54:51;;;;;;;1.35;0.30;;;20.80;44.60;;;;;;5039391;28;20123;-65
2022/05/30 09:57:24;;;;;;;0.93;0.60;;;20.80;44.60;;;;;;5056602;28;20040;-64
2022/05/30 09:59:53;;;;;;;2.03;0.60;;;20.80;44.30;;;;;;5059527;28;20103;-63
2022/05/30 10:02:35;;;;;;;3.50;0.75;;;20.70;44.30;;;;;;5057820;28;20109;-63
2022/05/30 10:05:06;;;;;;;1.17;0.60;;;20.70;44.00;;;;;;5039159;28;20060;-64
2022/05/30 10:07:33;;;;;;;1.50;0.70;;;20.70;44.20;;;;;;5057609;28;20494;-64
2022/05/30 10:10:19;;;;;;;1.95;0.63;;;20.70;44.40;;;;;;5056428;28;20173;-64
2022/05/30 10:13:16;;;;;;;1.40;0.50;;;20.70;44.50;;;;;;5056243;28;20353;-64
2022/05/30 10:15:44;;;;;;;1.15;0.60;;;20.70;44.60;;;;;;5056492;28;20049;-64
2022/05/30 10:18:12;;;;;;;0.60;0.40;;;20.70;44.70;;;;;;5058478;28;20082;-64
2022/05/30 10:21:00;;;;;;;1.55;0.40;;;20.70;44.70;;;;;;5056641;28;20489;-63
2022/05/30 10:29:31;;;;;;;1.73;0.70;;;20.70;45.00;;;;;;5053600;28;20119;-63
2022/05/30 10:32:13;;;;;;;1.00;0.40;;;20.70;45.10;;;;;;5038969;28;20040;-63
2022/05/30 10:34:59;;;;;;;0.52;0.40;;;20.70;45.10;;;;;;5055005;28;20037;-63
2022/05/30 10:37:30;;;;;;;1.15;0.40;;;20.70;45.20;;;;;;5056058;28;20028;-64
2022/05/30 10:40:11;;;;;;;1.85;0.40;;;20.70;45.20;;;;;;5055917;28;20041;-63
2022/05/30 10:42:40;;;;;;;1.08;0.40;;;20.80;45.20;;;;;;5056462;28;20033;-63
2022/05/30 10:45:12;;;;;;;1.17;0.52;;;20.70;45.20;;;;;;5056553;28;20033;-64
2022/05/30 10:47:45;;;;;;;1.60;0.40;;;20.80;45.30;;;;;;5055985;28;20809;-63
2022/05/30 10:50:46;;;;;;;1.42;0.38;;;20.80;45.20;;;;;;5055536;28;20124;-62
2022/05/30 10:53:35;;;;;;;0.95;0.30;;;20.70;45.10;;;;;;5056171;28;20045;-63
2022/05/30 10:56:24;;;;;;;1.35;0.40;;;20.70;44.30;;;;;;5055973;28;20055;-63
2022/05/30 10:58:58;;;;;;;0.93;0.40;;;20.70;44.60;;;;;;5054997;28;20090;-64
2022/05/30 11:01:32;;;;;;;0.70;0.38;;;20.70;44.60;;;;;;5056278;28;20077;-63
2022/05/30 11:04:16;;;;;;;1.42;0.35;;;20.70;44.50;;;;;;5053813;28;20106;-64
2022/05/30 11:06:47;;;;;;;0.98;0.50;;;20.70;44.60;;;;;;5052956;28;20514;-63
2022/05/30 11:09:30;;;;;;;0.60;0.40;;;20.70;44.60;;;;;;5056412;28;20589;-64
2022/05/30 11:12:11;;;;;;;0.82;0.40;;;20.70;44.60;;;;;;5055139;28;20037;-64
2022/05/30 11:15:10;;;;;;;1.63;0.55;;;20.70;44.70;;;;;;5046702;28;20138;-63
2022/05/30 11:17:52;;;;;;;1.23;0.40;;;20.70;45.50;;;;;;5055510;28;20029;-63
2022/05/30 11:20:25;;;;;;;0.80;0.40;;;20.70;44.80;;;;;;5056937;28;20088;-62
2022/05/30 11:22:52;;;;;;;1.05;0.60;;;20.70;44.80;;;;;;5059222;28;20033;-63
2022/05/30 11:25:36;;;;;;;0.77;0.43;;;20.70;44.90;;;;;;5058307;28;20032;-62
2022/05/30 11:28:16;;;;;;;0.85;0.47;;;20.70;44.90;;;;;;5055953;28;20044;-62
2022/05/30 11:31:01;;;;;;;1.80;0.30;;;20.70;45.00;;;;;;5056876;28;20443;-64
2022/05/30 11:33:59;;;;;;;2.60;0.50;;;20.70;45.00;;;;;;5053761;28;20053;-64
2022/05/30 11:36:46;;;;;;;0.43;0.30;;;20.70;45.00;;;;;;5049196;28;20075;-63
2022/05/30 11:39:38;;;;;;;1.88;0.52;;;20.70;45.20;;;;;;5053075;28;20393;-63
2022/05/30 11:42:25;;;;;;;0.40;0.30;;;20.70;45.20;;;;;;5056070;28;20037;-63
2022/05/30 11:44:59;;;;;;;0.60;0.32;;;20.70;45.30;;;;;;5052354;28;20025;-64
2022/05/30 11:47:45;;;;;;;0.82;0.30;;;20.70;45.30;;;;;;5054911;28;20597;-64
2022/05/30 11:50:33;;;;;;;0.75;0.30;;;20.70;45.30;;;;;;5055634;28;20040;-63
2022/05/30 11:53:33;;;;;;;4.40;0.50;;;20.70;45.30;;;;;;5055049;28;20045;-63
2022/05/30 11:56:24;;;;;;;2.25;0.50;;;20.70;45.40;;;;;;5055147;28;20047;-64
2022/05/30 11:59:07;;;;;;;0.60;0.43;;;20.70;45.40;;;;;;5053843;28;20036;-63
2022/05/30 12:01:36;;;;;;;1.48;0.60;;;20.70;45.40;;;;;;5053826;28;20787;-64
2022/05/30 12:04:41;;;;;;;0.75;0.30;;;20.70;45.50;;;;;;5054228;28;20098;-63
2022/05/30 12:07:09;;;;;;;1.10;0.50;;;20.70;45.40;;;;;;5058168;28;20047;-63
2022/05/30 12:09:52;;;;;;;0.28;0.28;;;20.70;45.30;;;;;;5037094;28;20079;-64
2022/05/30 12:12:27;;;;;;;2.53;0.50;;;20.70;45.30;;;;;;5054652;28;20068;-63
2022/05/30 12:15:21;;;;;;;1.40;0.40;;;20.70;45.30;;;;;;5054251;28;20033;-64
2022/05/30 12:24:19;;;;;;;1.27;0.40;;;20.70;45.40;;;;;;5053378;28;20047;-63
2022/05/30 12:26:56;;;;;;;1.65;0.40;;;20.70;45.40;;;;;;5058655;28;20051;-63
2022/05/30 12:29:37;;;;;;;0.70;0.30;;;20.70;45.40;;;;;;5044130;28;20646;-63
2022/05/30 12:32:09;;;;;;;0.98;0.40;;;20.70;45.30;;;;;;5034772;28;20109;-64
2022/05/30 12:37:49;;;;;;;1.08;0.30;;;20.70;45.20;;;;;;5055046;28;20041;-64
2022/05/30 12:40:26;;;;;;;0.52;0.45;;;20.70;45.20;;;;;;5052877;28;20094;-63
2022/05/30 12:43:32;;;;;;;1.08;0.30;;;20.70;45.40;;;;;;5035365;28;20055;-64
2022/05/30 12:45:58;;;;;;;1.10;0.43;;;20.70;45.30;;;;;;5056536;28;20040;-63
2022/05/30 12:48:45;;;;;;;1.35;0.40;;;20.70;45.30;;;;;;5036644;28;20040;-63
2022/05/30 12:51:24;;;;;;;1.70;0.52;;;20.70;45.40;;;;;;5055363;28;20073;-64
2022/05/30 12:53:57;;;;;;;1.15;0.50;;;20.70;45.30;;;;;;5056201;28;20420;-63
2022/05/30 12:56:38;;;;;;;1.65;0.32;;;20.70;45.40;;;;;;5055196;28;20045;-64
2022/05/30 12:59:03;;;;;;;1.58;0.47;;;20.70;45.40;;;;;;5055859;28;20072;-63
2022/05/30 13:01:44;;;;;;;0.85;0.30;;;20.70;45.40;;;;;;5036852;28;20879;-64
2022/05/30 13:04:16;;;;;;;0.45;0.30;;;20.70;45.40;;;;;;5052461;28;20041;-63
2022/05/30 13:06:57;;;;;;;1.85;0.40;;;20.70;45.40;;;;;;5036403;28;20075;-63
2022/05/30 13:09:25;;;;;;;;;;;20.70;45.40;;;;;;5056664;28;20483;-63
2022/05/30 13:12:00;;;;;;;1.23;0.40;;;20.70;45.40;;;;;;5055891;28;19921;-62
2022/05/30 13:14:50;;;;;;;1.48;0.30;;;20.70;45.40;;;;;;5055586;28;20037;-63
2022/05/30 13:17:23;;;;;;;0.63;0.32;;;20.70;45.50;;;;;;5056941;28;20440;-63
2022/05/30 13:19:57;;;;;;;0.70;0.40;;;20.70;45.40;;;;;;5057824;28;20111;-63
2022/05/30 13:22:35;;;;;;;0.65;0.30;;;20.70;45.40;;;;;;5055120;28;20514;-63
2022/05/30 13:25:03;;;;;;;0.57;0.30;;;20.70;45.30;;;;;;5055355;28;20048;-64
2022/05/30 13:27:29;;;;;;;2.58;0.75;;;20.70;45.40;;;;;;5053568;28;20051;-63
2022/05/30 13:30:00;;;;;;;0.80;0.40;;;20.70;45.60;;;;;;5037581;28;20076;-63
2022/05/30 13:32:28;;;;;;;;;;;20.80;46.00;;;;;;5058130;28;20053;-63
2022/05/30 13:34:57;;;;;;;1.15;0.60;;;20.70;46.40;;;;;;5056995;28;20070;-63
2022/05/30 13:37:30;;;;;;;1.67;0.68;;;20.70;46.30;;;;;;5055871;28;20280;-63